Time;durP1;ratioP1;P1;durP2;ratioP2;P2;SDS_P1;SDS_P2;PMS_P1;PMS_P2;Temp;Humidity;BMP_temperature;BMP_pressure;BME280_temperature;BME280_humidity;BME280_pressure;Samples;Min_cycle;Max_cycle;Signal;HPM_P1;HPM_P2
2023/05/06 00:00:24;;;;;;;13.80;8.85;;;;;;;11.14;96.38;101516.34;4988687;28;20185;-69
2023/05/06 00:02:49;;;;;;;13.13;8.90;;;;;;;11.11;96.13;101507.50;4988078;28;20026;-69
2023/05/06 00:05:17;;;;;;;11.50;8.30;;;;;;;11.07;96.31;101511.41;4987649;28;20553;-69
2023/05/06 00:07:44;;;;;;;12.60;8.65;;;;;;;11.03;97.24;101505.28;4996162;28;20121;-68
2023/05/06 00:10:10;;;;;;;10.65;7.05;;;;;;;10.94;96.12;101494.97;5000086;28;20487;-69
2023/05/06 00:12:35;;;;;;;9.23;7.32;;;;;;;10.93;95.24;101502.25;4987822;28;20057;-68
2023/05/06 00:15:01;;;;;;;12.32;8.18;;;;;;;10.91;96.06;101503.31;4987698;28;20053;-68
2023/05/06 00:17:26;;;;;;;11.63;7.70;;;;;;;10.86;95.43;101500.88;4986717;28;20076;-69
2023/05/06 00:19:52;;;;;;;12.57;8.00;;;;;;;10.76;96.21;101487.97;4988008;28;20671;-69
2023/05/06 00:22:17;;;;;;;13.25;9.18;;;;;;;10.76;96.34;101496.13;4987183;28;20161;-69
2023/05/06 00:24:42;;;;;;;15.18;8.82;;;;;;;10.73;95.23;101489.91;4997280;28;20052;-69
2023/05/06 00:27:08;;;;;;;12.27;8.65;;;;;;;10.69;95.24;101495.66;4987360;28;20093;-68
2023/05/06 00:29:33;;;;;;;12.48;8.38;;;;;;;10.65;95.71;101485.91;4987581;28;20030;-69
2023/05/06 00:31:59;;;;;;;17.25;8.13;;;;;;;10.59;95.29;101498.06;4985793;28;20045;-68
2023/05/06 00:34:24;;;;;;;11.43;7.55;;;;;;;10.53;94.92;101494.84;4987326;28;20061;-69
2023/05/06 00:36:49;;;;;;;11.45;7.95;;;;;;;10.53;95.74;101497.56;4986430;28;20028;-69
2023/05/06 00:39:15;;;;;;;12.88;8.95;;;;;;;10.52;97.74;101493.97;4986244;28;20128;-69
2023/05/06 00:41:40;;;;;;;10.13;6.90;;;;;;;10.48;96.38;101496.00;4987460;28;20034;-69
2023/05/06 00:44:06;;;;;;;12.13;8.32;;;;;;;10.46;97.09;101499.78;4987279;28;20038;-69
2023/05/06 00:46:32;;;;;;;11.23;7.80;;;;;;;10.41;96.10;101491.91;5002987;28;20459;-68
2023/05/06 00:48:58;;;;;;;10.00;7.55;;;;;;;10.38;95.56;101496.66;4985610;28;20049;-68
2023/05/06 00:51:24;;;;;;;10.65;8.25;;;;;;;10.30;96.01;101486.22;4986875;28;20394;-68
2023/05/06 00:53:50;;;;;;;10.75;7.82;;;;;;;10.28;95.87;101496.34;4995815;28;20049;-68
2023/05/06 00:56:16;;;;;;;13.40;9.45;;;;;;;10.25;98.57;101490.22;4986981;28;20034;-68
2023/05/06 00:58:43;;;;;;;12.35;8.20;;;;;;;10.16;97.75;101483.44;4984455;28;20866;-68
2023/05/06 01:01:08;;;;;;;11.25;8.85;;;;;;;10.11;96.87;101480.13;4985279;28;20030;-68
2023/05/06 01:03:34;;;;;;;11.88;9.27;;;;;;;10.08;96.00;101488.50;4986670;28;20582;-68
2023/05/06 01:06:24;;;;;;;12.88;8.63;;;;;;;10.05;95.97;101485.94;4985113;28;20038;-68
2023/05/06 01:09:13;;;;;;;13.15;9.35;;;;;;;10.02;96.14;101486.13;4986366;28;20038;-68
2023/05/06 01:11:51;;;;;;;14.82;9.43;;;;;;;10.01;96.50;101487.09;5003709;28;20563;-68
2023/05/06 01:14:39;;;;;;;14.48;8.57;;;;;;;9.98;96.92;101485.47;5006019;28;20034;-68
2023/05/06 01:17:08;;;;;;;10.88;7.97;;;;;;;9.92;97.30;101481.22;4998334;28;20100;-68
2023/05/06 01:19:49;;;;;;;17.15;9.40;;;;;;;9.88;96.84;101484.22;4999252;28;20465;-68
2023/05/06 01:22:15;;;;;;;15.10;9.10;;;;;;;9.82;97.07;101481.88;5005034;28;20065;-68
2023/05/06 01:24:45;;;;;;;13.15;8.60;;;;;;;9.78;97.33;101486.63;5001368;28;20056;-68
2023/05/06 01:27:12;;;;;;;13.50;9.57;;;;;;;9.72;98.15;101484.25;4984706;28;20112;-68
2023/05/06 01:29:41;;;;;;;11.48;8.65;;;;;;;9.67;97.14;101476.38;4988054;28;20420;-68
2023/05/06 01:32:24;;;;;;;14.35;9.77;;;;;;;9.63;99.94;101479.38;4989968;28;20113;-68
2023/05/06 01:35:15;;;;;;;18.10;11.30;;;;;;;9.61;98.66;101473.16;5003478;28;20038;-68
2023/05/06 01:38:05;;;;;;;13.80;9.85;;;;;;;9.59;98.94;101480.50;4989161;28;20665;-68
2023/05/06 01:40:32;;;;;;;13.63;9.00;;;;;;;9.54;98.01;101469.91;4989782;28;20150;-68
2023/05/06 01:43:01;;;;;;;15.98;10.82;;;;;;;9.54;99.27;101480.78;4989086;28;20213;-69
2023/05/06 01:45:29;;;;;;;14.88;10.77;;;;;;;9.52;98.27;101470.97;4989246;28;20045;-68
2023/05/06 01:47:56;;;;;;;15.23;10.13;;;;;;;9.49;98.98;101474.75;4989660;28;20130;-68
2023/05/06 01:50:22;;;;;;;17.80;9.25;;;;;;;9.47;99.73;101476.69;4989738;28;20386;-68
2023/05/06 01:53:01;;;;;;;12.65;8.90;;;;;;;9.48;98.39;101478.44;4988467;28;20141;-68
2023/05/06 01:55:27;;;;;;;12.68;9.63;;;;;;;9.44;99.01;101477.72;4990090;28;20616;-68
2023/05/06 01:57:54;;;;;;;13.02;9.20;;;;;;;9.43;97.43;101491.41;4988927;28;20045;-68
2023/05/06 02:00:19;;;;;;;12.05;9.25;;;;;;;9.42;97.53;101498.66;4989664;28;20084;-68
2023/05/06 02:02:46;;;;;;;14.80;10.45;;;;;;;9.40;97.61;101495.16;5000427;28;20073;-68
2023/05/06 02:05:11;;;;;;;15.80;11.93;;;;;;;9.42;97.71;101505.94;5009627;28;20419;-68
2023/05/06 02:07:42;;;;;;;15.95;10.93;;;;;;;9.42;99.07;101498.66;5006753;28;20041;-67
2023/05/06 02:10:08;;;;;;;16.90;12.15;;;;;;;9.41;98.34;101496.03;4994749;28;20037;-69
2023/05/06 02:12:35;;;;;;;16.00;11.88;;;;;;;9.37;99.43;101497.16;4988650;28;20034;-68
2023/05/06 02:15:01;;;;;;;12.23;8.38;;;;;;;9.29;99.38;101497.63;4989135;28;20045;-68
2023/05/06 02:17:26;;;;;;;11.98;9.23;;;;;;;9.25;99.72;101504.19;4989284;28;20022;-68
2023/05/06 02:19:52;;;;;;;11.52;8.68;;;;;;;9.17;99.21;101509.16;4990535;28;20045;-69
2023/05/06 02:22:17;;;;;;;13.73;8.48;;;;;;;9.18;98.58;101513.63;4987869;28;20052;-69
2023/05/06 02:24:43;;;;;;;11.38;8.80;;;;;;;9.18;98.11;101513.63;4988152;28;20034;-68
2023/05/06 02:27:08;;;;;;;15.40;9.02;;;;;;;9.16;99.04;101508.28;4987877;28;20030;-68
2023/05/06 02:29:34;;;;;;;13.52;9.57;;;;;;;9.14;99.08;101515.66;4989874;28;20113;-68
2023/05/06 02:31:59;;;;;;;14.23;9.93;;;;;;;9.13;98.74;101508.44;4988132;28;20383;-68
2023/05/06 02:34:24;;;;;;;15.32;9.93;;;;;;;9.15;98.53;101511.09;4989685;28;20444;-68
2023/05/06 02:36:50;;;;;;;17.70;10.43;;;;;;;9.09;98.50;101504.16;4987186;28;20392;-69
2023/05/06 02:39:15;;;;;;;14.88;9.60;;;;;;;9.11;98.01;101510.38;4987880;28;20022;-68
2023/05/06 02:41:40;;;;;;;16.33;10.85;;;;;;;9.08;99.80;101505.09;4987574;28;20316;-69
2023/05/06 02:44:06;;;;;;;14.52;10.18;;;;;;;9.06;97.86;101504.34;4989600;28;20064;-69
2023/05/06 02:46:32;;;;;;;16.90;9.80;;;;;;;9.03;97.60;101496.34;4989381;28;20391;-69
2023/05/06 02:48:57;;;;;;;11.93;8.73;;;;;;;9.03;98.43;101495.47;4987925;28;20509;-69
2023/05/06 02:51:22;;;;;;;15.55;9.93;;;;;;;9.04;98.68;101499.94;4989439;28;20026;-70
2023/05/06 02:53:48;;;;;;;16.27;10.52;;;;;;;9.06;99.32;101503.47;4989176;28;20038;-69
2023/05/06 02:56:13;;;;;;;15.52;9.38;;;;;;;9.05;99.06;101497.16;4989000;28;20023;-69
2023/05/06 02:58:38;;;;;;;13.98;9.48;;;;;;;9.02;98.94;101502.75;4987696;28;20093;-69
2023/05/06 03:01:04;;;;;;;14.70;9.70;;;;;;;9.00;97.80;101498.34;4989305;28;20045;-70
2023/05/06 03:03:29;;;;;;;13.73;9.73;;;;;;;8.98;97.71;101494.84;4987596;28;20089;-69
2023/05/06 03:05:54;;;;;;;12.57;9.38;;;;;;;8.96;98.12;101496.78;4988895;28;20038;-69
2023/05/06 03:08:21;;;;;;;14.00;8.80;;;;;;;8.89;98.10;101486.25;4993291;28;20062;-69
2023/05/06 03:10:47;;;;;;;13.93;9.88;;;;;;;8.93;99.93;101495.13;4988168;28;20505;-69
2023/05/06 03:13:15;;;;;;;14.73;8.88;;;;;;;8.92;98.95;101491.53;4987395;28;20037;-69
2023/05/06 03:15:40;;;;;;;12.45;8.85;;;;;;;8.90;98.83;101490.72;4987683;28;20149;-69
2023/05/06 03:18:06;;;;;;;16.15;8.90;;;;;;;8.88;98.00;101495.38;4987028;28;20038;-69
2023/05/06 03:20:31;;;;;;;11.90;8.07;;;;;;;8.86;97.92;101500.00;4987353;28;20022;-69
2023/05/06 03:22:58;;;;;;;10.77;7.78;;;;;;;8.86;97.90;101493.69;4985995;28;20179;-69
2023/05/06 03:25:24;;;;;;;18.15;9.55;;;;;;;8.81;100.00;101482.22;4987299;28;20030;-69
2023/05/06 03:27:50;;;;;;;14.02;10.05;;;;;;;8.82;100.00;101490.28;4987455;28;20034;-69
2023/05/06 03:30:19;;;;;;;11.52;8.13;;;;;;;8.78;99.90;101485.97;4987840;28;20038;-69
2023/05/06 03:32:47;;;;;;;17.33;10.35;;;;;;;8.79;100.00;101481.44;4999582;28;20074;-69
2023/05/06 03:35:17;;;;;;;15.57;10.55;;;;;;;8.76;100.00;101484.31;5002693;28;20393;-69
2023/05/06 03:37:47;;;;;;;15.52;9.90;;;;;;;8.71;100.00;101486.38;4985909;28;20134;-69
2023/05/06 03:40:12;;;;;;;17.30;10.52;;;;;;;8.65;100.00;101476.75;5002974;28;20030;-69
2023/05/06 03:42:38;;;;;;;15.85;9.93;;;;;;;8.68;100.00;101476.59;4987136;28;20073;-69
2023/05/06 03:45:05;;;;;;;14.77;8.57;;;;;;;8.65;100.00;101485.75;4986821;28;20125;-69
2023/05/06 03:47:31;;;;;;;14.77;9.00;;;;;;;8.68;100.00;101482.03;4996054;28;20490;-69
2023/05/06 03:49:58;;;;;;;14.07;9.25;;;;;;;8.63;100.00;101476.84;5006260;28;20079;-69
2023/05/06 03:52:23;;;;;;;15.60;9.88;;;;;;;8.65;100.00;101484.88;5004025;28;20034;-69
2023/05/06 03:54:49;;;;;;;12.73;9.15;;;;;;;8.63;100.00;101486.81;5003795;28;20490;-69
2023/05/06 03:57:14;;;;;;;12.10;8.40;;;;;;;8.62;100.00;101485.03;4987704;28;20496;-69
2023/05/06 03:59:40;;;;;;;13.77;8.70;;;;;;;8.60;100.00;101493.28;4986590;28;20045;-69
2023/05/06 04:02:05;;;;;;;12.68;7.95;;;;;;;8.58;99.62;101483.47;4992469;28;20037;-69
2023/05/06 04:04:33;;;;;;;13.93;8.43;;;;;;;8.59;99.72;101491.53;5005947;28;20049;-69
2023/05/06 04:06:59;;;;;;;9.60;7.35;;;;;;;8.60;99.25;101489.69;5004848;28;20037;-68
2023/05/06 04:09:25;;;;;;;11.68;7.45;;;;;;;8.59;99.02;101505.09;5006554;28;20553;-69
2023/05/06 04:11:51;;;;;;;11.70;8.23;;;;;;;8.59;100.00;101502.38;4990019;28;20637;-69
2023/05/06 04:14:17;;;;;;;12.35;7.72;;;;;;;8.60;99.40;101504.13;4990480;28;20025;-69
2023/05/06 04:16:43;;;;;;;10.60;7.38;;;;;;;8.62;99.22;101495.91;5000484;28;20533;-69
2023/05/06 04:19:08;;;;;;;11.18;7.57;;;;;;;8.63;99.63;101505.81;4987528;28;20549;-69
2023/05/06 04:21:34;;;;;;;13.70;7.22;;;;;;;8.66;98.86;101501.06;4985496;28;20505;-69
2023/05/06 04:24:04;;;;;;;9.88;7.30;;;;;;;8.68;99.56;101495.59;4984908;28;20378;-69
2023/05/06 04:26:35;;;;;;;10.82;7.13;;;;;;;8.71;99.13;101495.41;4987170;28;20027;-69
2023/05/06 04:29:00;;;;;;;8.90;6.93;;;;;;;8.79;99.34;101501.28;4985423;28;20048;-69
2023/05/06 04:31:28;;;;;;;8.23;6.03;;;;;;;8.86;99.08;101507.25;5003725;28;20030;-69
2023/05/06 04:33:55;;;;;;;9.07;6.85;;;;;;;8.94;99.00;101507.72;4986443;28;20126;-69
2023/05/06 04:36:23;;;;;;;8.63;6.63;;;;;;;9.03;99.23;101503.63;5002942;28;20490;-69
2023/05/06 04:39:05;;;;;;;11.35;7.10;;;;;;;9.16;100.00;101507.41;4985121;28;20030;-69
2023/05/06 04:41:32;;;;;;;11.45;8.18;;;;;;;9.24;100.00;101509.69;4985828;28;20379;-69
2023/05/06 04:43:57;;;;;;;11.38;8.48;;;;;;;9.31;99.78;101511.97;4985629;28;20022;-69
2023/05/06 04:46:23;;;;;;;10.63;7.35;;;;;;;9.39;99.68;101506.09;4985555;28;20060;-69
2023/05/06 04:48:49;;;;;;;10.52;6.90;;;;;;;9.47;99.81;101511.13;4985931;28;20112;-69
2023/05/06 04:51:16;;;;;;;10.40;7.03;;;;;;;9.55;100.00;101512.41;4988365;28;20492;-69
2023/05/06 04:53:41;;;;;;;11.50;7.25;;;;;;;9.64;99.96;101511.88;4986222;28;20323;-70
2023/05/06 04:56:07;;;;;;;11.35;7.40;;;;;;;9.73;100.00;101513.19;4998276;28;20081;-70
2023/05/06 04:58:33;;;;;;;9.70;6.95;;;;;;;9.81;99.82;101508.19;5003548;28;20129;-69
2023/05/06 05:01:04;;;;;;;9.60;7.07;;;;;;;9.91;99.73;101513.94;5005001;28;20037;-69
2023/05/06 05:03:30;;;;;;;16.35;7.57;;;;;;;9.98;99.87;101515.34;5003952;28;20030;-69
2023/05/06 05:05:56;;;;;;;11.20;8.43;;;;;;;10.06;100.00;101523.91;5004740;28;20042;-69
2023/05/06 05:08:22;;;;;;;11.60;8.07;;;;;;;10.15;99.66;101508.91;5003620;28;20096;-69
2023/05/06 05:10:47;;;;;;;13.70;8.60;;;;;;;10.22;99.95;101519.31;5002290;28;20049;-69
2023/05/06 05:13:18;;;;;;;12.85;9.02;;;;;;;10.32;100.00;101525.09;4986022;28;20068;-69
2023/05/06 05:15:44;;;;;;;18.27;9.07;;;;;;;10.40;100.00;101530.97;4995981;28;20494;-69
2023/05/06 05:18:11;;;;;;;12.52;8.45;;;;;;;10.50;100.00;101533.13;5000263;28;20222;-69
2023/05/06 05:20:38;;;;;;;11.63;9.23;;;;;;;10.54;100.00;101531.94;5001663;28;20046;-69
2023/05/06 05:23:04;;;;;;;13.57;9.57;;;;;;;10.61;100.00;101541.50;5000173;28;20152;-69
2023/05/06 05:25:31;;;;;;;20.05;10.10;;;;;;;10.66;99.88;101534.78;4994213;28;20030;-69
2023/05/06 05:27:56;;;;;;;13.20;9.18;;;;;;;10.72;99.03;101542.59;4984976;28;20044;-69
2023/05/06 05:30:22;;;;;;;16.38;9.07;;;;;;;10.69;99.01;101531.91;4986944;28;20122;-69
2023/05/06 05:32:48;;;;;;;11.60;8.80;;;;;;;10.81;99.04;101542.97;4992866;28;20049;-69
2023/05/06 05:35:15;;;;;;;14.98;10.13;;;;;;;10.82;100.00;101545.63;4996528;28;20488;-69
2023/05/06 05:37:42;;;;;;;11.30;8.27;;;;;;;10.82;100.00;101548.34;5002884;28;20308;-69
2023/05/06 05:40:08;;;;;;;14.50;9.50;;;;;;;10.84;100.00;101545.53;5004010;28;20120;-69
2023/05/06 05:42:36;;;;;;;13.73;9.48;;;;;;;10.91;100.00;101549.59;5004938;28;20110;-69
2023/05/06 05:45:09;;;;;;;13.40;9.40;;;;;;;11.05;100.00;101548.72;5004472;28;20145;-69
2023/05/06 05:47:35;;;;;;;12.43;9.00;;;;;;;11.21;99.93;101552.25;5010201;28;20109;-68
2023/05/06 05:50:01;;;;;;;13.38;8.73;;;;;;;11.37;100.00;101552.13;5001137;28;20054;-68
2023/05/06 05:52:26;;;;;;;13.57;9.65;;;;;;;11.50;99.55;101561.25;4983481;28;20040;-70
2023/05/06 05:54:52;;;;;;;15.57;8.75;;;;;;;11.60;100.00;101553.34;4988315;28;20561;-69
2023/05/06 05:57:18;;;;;;;15.10;8.30;;;;;;;11.69;99.87;101553.63;5000475;28;20113;-69
2023/05/06 05:59:43;;;;;;;11.73;7.45;;;;;;;11.83;99.32;101552.75;4985062;28;20019;-69
2023/05/06 06:02:08;;;;;;;13.95;8.07;;;;;;;11.94;98.42;101557.50;4989925;28;20042;-69
2023/05/06 06:04:34;;;;;;;10.73;7.45;;;;;;;11.98;97.90;101549.03;4993894;28;20491;-69
2023/05/06 06:07:03;;;;;;;13.23;7.15;;;;;;;12.07;97.11;101547.50;4984450;28;20038;-69
2023/05/06 06:09:32;;;;;;;11.95;7.10;;;;;;;12.15;96.04;101549.72;4984267;28;20113;-69
2023/05/06 06:11:59;;;;;;;11.98;7.68;;;;;;;12.22;97.04;101551.94;4997899;28;20065;-69
2023/05/06 06:14:24;;;;;;;12.65;8.02;;;;;;;12.25;96.39;101548.09;5000186;28;20085;-69
2023/05/06 06:16:50;;;;;;;12.25;7.03;;;;;;;12.31;95.84;101555.00;4998013;28;20034;-70
2023/05/06 06:19:17;;;;;;;11.90;7.05;;;;;;;12.36;95.93;101550.13;5007525;28;20079;-69
2023/05/06 06:21:42;;;;;;;13.85;6.90;;;;;;;12.42;95.56;101553.28;5003291;28;20030;-69
2023/05/06 06:24:08;;;;;;;11.68;7.03;;;;;;;12.44;96.05;101550.44;5006365;28;20386;-69
2023/05/06 06:26:33;;;;;;;16.30;7.28;;;;;;;12.51;95.62;101557.25;5006160;28;20042;-69
2023/05/06 06:28:58;;;;;;;10.43;6.68;;;;;;;12.58;95.38;101552.22;4999650;28;20034;-69
2023/05/06 06:31:24;;;;;;;11.30;6.43;;;;;;;12.61;95.52;101552.88;4997914;28;20033;-69
2023/05/06 06:33:50;;;;;;;12.55;7.30;;;;;;;12.65;94.60;101550.81;4979351;28;20038;-69
2023/05/06 06:36:15;;;;;;;12.23;7.00;;;;;;;12.74;94.31;101561.09;4999040;28;20034;-69
2023/05/06 06:38:41;;;;;;;10.63;7.20;;;;;;;12.80;95.64;101557.06;5007492;28;20511;-69
2023/05/06 06:41:06;;;;;;;12.27;7.20;;;;;;;12.90;96.04;101556.28;4995564;28;20037;-69
2023/05/06 06:43:32;;;;;;;11.32;6.53;;;;;;;12.96;94.59;101554.97;5008160;28;20034;-69
2023/05/06 06:45:59;;;;;;;10.23;6.45;;;;;;;13.00;94.82;101570.16;5006212;28;20409;-69
2023/05/06 06:48:25;;;;;;;11.57;7.05;;;;;;;13.01;95.25;101569.22;5000117;28;20053;-69
2023/05/06 06:50:50;;;;;;;13.25;7.43;;;;;;;13.08;94.68;101561.44;5008602;28;20132;-69
2023/05/06 06:53:16;;;;;;;14.70;7.20;;;;;;;13.13;93.08;101565.59;5000865;28;20042;-69
2023/05/06 06:55:43;;;;;;;12.52;7.60;;;;;;;13.18;95.40;101568.84;4996530;28;20555;-69
2023/05/06 06:58:08;;;;;;;10.35;7.28;;;;;;;13.22;95.34;101566.81;5008115;28;20370;-69
2023/05/06 07:00:34;;;;;;;11.13;7.28;;;;;;;13.28;95.04;101561.78;4992883;28;20034;-69
2023/05/06 07:02:59;;;;;;;11.80;7.13;;;;;;;13.38;95.71;101563.84;4987928;28;20493;-69
2023/05/06 07:05:25;;;;;;;20.48;8.32;;;;;;;13.45;95.66;101562.41;4988714;28;20050;-69
2023/05/06 07:07:51;;;;;;;12.30;7.50;;;;;;;13.53;94.25;101565.47;4986234;28;20067;-69
2023/05/06 07:10:17;;;;;;;12.25;6.65;;;;;;;13.62;94.02;101570.25;5003660;28;20398;-70
2023/05/06 07:12:42;;;;;;;14.70;7.55;;;;;;;13.73;93.51;101572.19;4988396;28;20041;-69
2023/05/06 07:15:08;;;;;;;13.90;7.57;;;;;;;13.82;94.21;101571.50;4988779;28;20046;-69
2023/05/06 07:17:33;;;;;;;14.75;6.90;;;;;;;13.89;93.54;101561.84;4993471;28;20045;-69
2023/05/06 07:19:59;;;;;;;12.57;7.57;;;;;;;14.00;93.74;101575.59;5008303;28;20497;-69
2023/05/06 07:22:26;;;;;;;12.30;7.57;;;;;;;14.15;93.10;101578.16;5003966;28;20037;-69
2023/05/06 07:24:52;;;;;;;14.63;8.20;;;;;;;14.35;93.35;101576.66;5003842;28;20088;-70
2023/05/06 07:27:17;;;;;;;19.20;9.65;;;;;;;14.49;91.70;101576.50;4988890;28;20030;-69
2023/05/06 07:29:42;;;;;;;18.23;9.10;;;;;;;14.58;92.58;101570.31;4987066;28;20030;-69
2023/05/06 07:32:08;;;;;;;19.23;8.48;;;;;;;14.69;92.17;101578.56;4988206;28;20069;-69
2023/05/06 07:34:34;;;;;;;21.95;9.50;;;;;;;14.78;92.37;101579.69;4988897;28;20501;-69
2023/05/06 07:37:00;;;;;;;19.58;9.77;;;;;;;14.90;91.88;101572.38;4986514;28;20113;-69
2023/05/06 07:39:26;;;;;;;27.48;10.23;;;;;;;14.95;92.59;101567.41;4988065;28;20168;-69
2023/05/06 07:41:51;;;;;;;22.20;11.13;;;;;;;15.09;90.92;101580.88;4996595;28;20509;-69
2023/05/06 07:44:17;;;;;;;21.02;10.77;;;;;;;15.21;91.86;101570.81;4990627;28;20036;-69
2023/05/06 07:46:43;;;;;;;22.63;11.38;;;;;;;15.36;91.27;101574.19;4991374;28;20157;-69
2023/05/06 07:49:08;;;;;;;28.02;13.15;;;;;;;15.59;90.66;101577.81;4988513;28;20049;-69
2023/05/06 07:51:33;;;;;;;34.10;13.93;;;;;;;15.95;89.10;101580.28;4991209;28;20103;-70
2023/05/06 07:53:59;;;;;;;26.40;13.38;;;;;;;16.46;87.49;101575.97;4987558;28;20129;-70
2023/05/06 07:56:25;;;;;;;27.67;13.77;;;;;;;16.99;84.88;101587.00;4988070;28;20101;-70
2023/05/06 07:58:50;;;;;;;26.20;12.50;;;;;;;17.39;84.91;101584.31;4988771;28;20033;-69
2023/05/06 08:01:15;;;;;;;23.45;11.38;;;;;;;17.84;83.75;101578.44;4986807;28;20068;-69
2023/05/06 08:03:40;;;;;;;19.00;10.98;;;;;;;18.09;80.37;101580.72;4987330;28;20615;-69
2023/05/06 08:06:06;;;;;;;24.40;11.80;;;;;;;18.45;79.09;101580.16;5000176;28;20038;-67
2023/05/06 08:08:31;;;;;;;22.52;11.35;;;;;;;18.68;75.79;101576.09;4987053;28;20149;-67
2023/05/06 08:10:57;;;;;;;19.40;10.05;;;;;;;18.98;78.75;101580.59;4986670;28;20030;-70
2023/05/06 08:13:23;;;;;;;24.77;11.15;;;;;;;19.34;75.33;101578.03;4987196;28;20038;-69
2023/05/06 08:15:49;;;;;;;23.52;11.80;;;;;;;19.83;74.28;101581.50;4998203;28;20068;-70
2023/05/06 08:18:14;;;;;;;26.55;11.82;;;;;;;20.13;72.21;101583.03;4991085;28;20521;-70
2023/05/06 08:20:39;;;;;;;22.00;11.48;;;;;;;20.10;70.12;101588.91;4988744;28;20025;-70
2023/05/06 08:23:05;;;;;;;18.48;11.07;;;;;;;20.11;67.61;101580.44;4985642;28;20034;-70
2023/05/06 08:25:30;;;;;;;17.25;10.55;;;;;;;20.21;69.67;101576.75;5004023;28;20107;-69
2023/05/06 08:27:56;;;;;;;20.33;10.30;;;;;;;20.38;66.18;101579.53;4987645;28;20142;-70
2023/05/06 08:30:22;;;;;;;16.20;9.93;;;;;;;20.13;64.79;101578.38;5000809;28;20046;-70
2023/05/06 08:32:47;;;;;;;18.55;9.57;;;;;;;20.10;68.92;101578.72;4996881;28;20115;-69
2023/05/06 08:35:12;;;;;;;19.17;10.02;;;;;;;19.88;65.70;101571.72;4997656;28;20027;-70
2023/05/06 08:37:40;;;;;;;15.55;8.35;;;;;;;20.15;69.59;101569.09;5001467;28;20025;-69
2023/05/06 08:40:17;;;;;;;14.35;8.43;;;;;;;20.42;67.48;101563.47;4993273;28;20099;-69
2023/05/06 08:42:44;;;;;;;20.23;9.13;;;;;;;20.91;69.53;101575.03;4987021;28;20557;-69
2023/05/06 08:45:10;;;;;;;15.93;8.35;;;;;;;21.08;64.25;101571.34;4994334;28;20038;-70
2023/05/06 08:47:35;;;;;;;14.77;8.02;;;;;;;20.69;62.56;101564.47;5001306;28;20405;-70
2023/05/06 08:50:01;;;;;;;16.60;8.57;;;;;;;20.77;66.91;101573.69;5006073;28;20034;-70
2023/05/06 08:52:27;;;;;;;13.98;7.85;;;;;;;20.82;62.68;101567.69;4987813;28;20058;-69
2023/05/06 08:54:59;;;;;;;12.45;8.15;;;;;;;20.74;62.91;101564.84;4987242;28;20030;-70
2023/05/06 08:57:27;;;;;;;;;;;;;;;21.02;69.25;101563.69;4987922;28;20047;-69
2023/05/06 08:59:53;;;;;;;11.20;7.18;;;;;;;21.68;63.28;101555.78;4987772;28;20331;-69
2023/05/06 09:02:19;;;;;;;13.88;7.47;;;;;;;22.20;63.30;101551.00;4994297;28;20069;-71
2023/05/06 09:04:44;;;;;;;15.43;7.90;;;;;;;22.52;62.95;101554.84;4989093;28;20430;-71
2023/05/06 09:07:10;;;;;;;15.35;7.90;;;;;;;22.76;61.03;101546.56;4985273;28;20131;-68
2023/05/06 09:09:35;;;;;;;9.77;5.50;;;;;;;22.93;61.75;101544.66;4995264;28;20385;-69
2023/05/06 09:12:01;;;;;;;11.02;5.05;;;;;;;23.07;59.39;101546.72;5003725;28;20045;-69
2023/05/06 09:14:26;;;;;;;8.07;4.43;;;;;;;23.20;60.89;101543.41;4988647;28;20018;-68
2023/05/06 09:16:52;;;;;;;7.32;3.75;;;;;;;23.29;56.93;101533.13;4994634;28;20073;-69
2023/05/06 09:19:19;;;;;;;11.38;4.60;;;;;;;23.28;57.22;101542.53;4991083;28;20124;-69
2023/05/06 09:21:46;;;;;;;9.13;4.95;;;;;;;23.50;59.10;101540.88;5001414;28;20057;-69
2023/05/06 09:24:14;;;;;;;8.45;4.72;;;;;;;23.60;60.25;101541.56;5005118;28;20627;-68
2023/05/06 09:26:41;;;;;;;10.00;5.40;;;;;;;23.60;56.69;101539.63;4988403;28;20146;-69
2023/05/06 09:29:07;;;;;;;8.82;5.30;;;;;;;23.40;55.57;101541.06;4990813;28;20037;-69
2023/05/06 09:31:39;;;;;;;7.00;4.70;;;;;;;23.62;58.03;101536.66;4994865;28;20406;-69
2023/05/06 09:34:05;;;;;;;9.43;4.80;;;;;;;23.77;52.58;101545.16;4986937;28;20033;-70
2023/05/06 09:36:31;;;;;;;5.90;3.92;;;;;;;23.97;56.63;101540.00;4993896;28;20022;-67
2023/05/06 09:38:56;;;;;;;11.38;5.43;;;;;;;23.76;49.50;101541.50;5002986;28;20481;-67
2023/05/06 09:41:24;;;;;;;8.38;4.25;;;;;;;23.94;55.04;101544.03;5001210;28;20049;-67
2023/05/06 09:43:53;;;;;;;8.52;4.20;;;;;;;24.08;52.98;101537.69;5006750;28;20429;-68
2023/05/06 09:46:23;;;;;;;8.50;4.75;;;;;;;24.23;53.02;101535.00;5006696;28;20410;-67
2023/05/06 09:48:51;;;;;;;9.27;4.32;;;;;;;24.24;52.42;101538.63;4998961;28;20046;-68
2023/05/06 09:51:17;;;;;;;5.75;4.07;;;;;;;24.34;51.44;101533.69;4994352;28;20045;-67
2023/05/06 09:53:44;;;;;;;11.13;4.35;;;;;;;24.37;54.32;101533.38;4989449;28;20042;-67
2023/05/06 09:56:10;;;;;;;6.35;4.32;;;;;;;24.40;53.85;101524.66;4990125;28;20363;-67
2023/05/06 09:58:37;;;;;;;5.57;3.60;;;;;;;24.62;55.10;101522.91;4990741;28;20037;-67
2023/05/06 10:01:05;;;;;;;7.22;3.83;;;;;;;24.62;47.66;101532.13;4990228;28;20057;-68
2023/05/06 10:03:31;;;;;;;6.97;3.45;;;;;;;24.69;51.16;101530.31;4989750;28;20034;-67
2023/05/06 10:05:59;;;;;;;6.13;3.00;;;;;;;24.92;52.93;101526.66;4989200;28;20089;-67
2023/05/06 10:08:25;;;;;;;8.13;4.32;;;;;;;24.88;50.04;101528.06;4989203;28;20042;-68
2023/05/06 10:10:52;;;;;;;5.90;3.15;;;;;;;24.98;52.67;101520.31;4990708;28;20351;-67
2023/05/06 10:13:20;;;;;;;6.68;3.22;;;;;;;24.94;48.14;101524.53;4991008;28;20080;-67
2023/05/06 10:15:47;;;;;;;6.25;2.83;;;;;;;25.24;50.48;101516.25;4993922;28;20082;-68
2023/05/06 10:18:17;;;;;;;5.72;2.85;;;;;;;25.19;49.01;101514.06;4995007;28;20033;-67
2023/05/06 10:20:44;;;;;;;4.50;2.40;;;;;;;25.27;48.48;101507.50;4989585;28;20038;-67
2023/05/06 10:23:22;;;;;;;3.42;2.17;;;;;;;25.28;50.61;101510.13;4988316;28;20477;-67
2023/05/06 10:25:52;;;;;;;5.88;2.33;;;;;;;25.19;46.08;101514.91;4990872;28;20041;-67
2023/05/06 10:28:19;;;;;;;5.43;2.58;;;;;;;25.50;48.67;101508.25;4990742;28;20136;-67
2023/05/06 10:30:46;;;;;;;4.22;1.63;;;;;;;25.66;48.43;101510.00;4990174;28;20019;-68
2023/05/06 10:33:13;;;;;;;4.25;1.52;;;;;;;25.93;45.81;101500.94;4989254;28;20660;-67
2023/05/06 10:36:00;;;;;;;4.00;1.40;;;;;;;25.79;43.57;101501.84;5005645;28;20547;-68
2023/05/06 10:38:39;;;;;;;3.50;1.40;;;;;;;25.86;46.03;101508.34;4993080;28;20513;-67
2023/05/06 10:41:06;;;;;;;2.72;1.20;;;;;;;25.59;44.34;101506.25;4989708;28;20035;-68
2023/05/06 10:43:33;;;;;;;3.75;1.20;;;;;;;25.23;43.75;101497.78;4990002;28;20479;-67
2023/05/06 10:46:31;;;;;;;2.70;1.55;;;;;;;25.05;42.22;101504.59;4989674;28;20038;-67
2023/05/06 10:49:07;;;;;;;3.75;1.60;;;;;;;24.90;48.10;101493.44;4999520;28;20125;-67
2023/05/06 10:51:34;;;;;;;4.93;1.65;;;;;;;25.27;48.03;101496.38;4995196;28;20038;-68
2023/05/06 10:54:18;;;;;;;3.83;1.38;;;;;;;25.27;44.43;101497.22;5003295;28;20121;-67
2023/05/06 10:56:49;;;;;;;2.88;1.35;;;;;;;25.39;46.61;101492.91;4990732;28;20026;-68
2023/05/06 10:59:21;;;;;;;4.75;1.40;;;;;;;25.41;45.03;101493.59;4988762;28;20060;-67
2023/05/06 11:01:55;;;;;;;2.42;1.05;;;;;;;25.61;44.19;101488.28;5001462;28;20038;-68
2023/05/06 11:04:22;;;;;;;5.22;1.20;;;;;;;25.58;42.59;101485.00;5002198;28;20050;-67
2023/05/06 11:06:49;;;;;;;6.10;1.40;;;;;;;25.37;43.06;101488.59;5008721;28;20026;-68
2023/05/06 11:09:19;;;;;;;3.80;1.38;;;;;;;24.89;43.95;101488.03;5008800;28;20125;-68
2023/05/06 11:12:02;;;;;;;2.45;1.27;;;;;;;24.80;46.50;101484.47;4999527;28;20479;-68
2023/05/06 11:14:29;;;;;;;2.90;1.20;;;;;;;24.94;47.47;101485.53;4994605;28;20030;-67
2023/05/06 11:17:00;;;;;;;2.38;1.30;;;;;;;24.65;43.91;101484.44;5002997;28;20058;-68
2023/05/06 11:19:30;;;;;;;2.92;1.30;;;;;;;24.24;44.08;101483.00;5003096;28;20029;-68